Terminal Aerodrome Forecast
Issued by NWS St Louis, MO

Home | Current Version | Previous Version | Graphics & Text | Print | Product List | Glossary On
Versions: 1 2 3 4 5 6 7 8 9 10 11 12 13 14 15 16 17 18 19 20 21 22 23 24
000
FTUS43 KLSX 170200 AAA
TAFSTL
TAF AMD
KSTL 170245Z 1703/1806 16015KT P6SM BKN250
     FM171500 22010KT P6SM SCT040 BKN150
     FM172000 28010KT P6SM BKN070
     FM180300 VRB05KT P6SM OVC050=

USA.gov is the U.S. government's official web portal to all federal, state and local government web resources and services.